Time;durP1;ratioP1;P1;durP2;ratioP2;P2;SDS_P1;SDS_P2;PMS_P1;PMS_P2;Temp;Humidity;BMP_temperature;BMP_pressure;BME280_temperature;BME280_humidity;BME280_pressure;Samples;Min_cycle;Max_cycle;Signal;HPM_P1;HPM_P2
2022/06/03 00:00:00;;;;;;;0.80;0.70;;;;;;;29.63;19.81;98787.25;5051633;28;20029;-80
2022/06/03 00:03:12;;;;;;;0.40;0.40;;;;;;;29.56;19.26;98789.53;5030185;28;20120;-80
2022/06/03 00:06:00;;;;;;;1.27;0.50;;;;;;;29.54;19.22;98781.50;5047469;28;20024;-80
2022/06/03 00:08:54;;;;;;;0.70;0.40;;;;;;;29.40;19.69;98796.91;5031723;28;20437;-80
2022/06/03 00:11:27;;;;;;;1.67;0.80;;;;;;;28.94;20.23;98788.25;5048270;28;20029;-80
2022/06/03 00:14:27;;;;;;;0.88;0.60;;;;;;;28.51;20.95;98797.97;5046976;28;20037;-80
2022/06/03 00:17:12;;;;;;;0.80;0.50;;;;;;;28.33;20.56;98794.84;5044949;28;20391;-80
2022/06/03 00:20:02;;;;;;;0.30;0.30;;;;;;;28.01;21.28;98800.56;5041131;28;20143;-80
2022/06/03 00:22:35;;;;;;;0.40;0.40;;;;;;;28.12;21.02;98805.94;5046460;28;20078;-80
2022/06/03 00:25:32;;;;;;;0.50;0.43;;;;;;;28.00;21.10;98793.34;5046401;28;20036;-80
2022/06/03 00:28:09;;;;;;;0.85;0.50;;;;;;;28.26;20.46;98786.59;5045262;28;20125;-80
2022/06/03 00:31:13;;;;;;;0.60;0.40;;;;;;;28.39;20.46;98786.59;5043143;28;20126;-80
2022/06/03 00:34:09;;;;;;;0.50;0.40;;;;;;;28.68;20.10;98787.41;5045115;28;20041;-80
2022/06/03 00:37:17;;;;;;;0.40;0.40;;;;;;;28.54;20.62;98788.56;5044875;28;20107;-80
2022/06/03 00:40:10;;;;;;;0.30;0.30;;;;;;;28.62;20.05;98784.34;5028612;28;20043;-80
2022/06/03 00:43:14;;;;;;;1.92;0.40;;;;;;;28.70;20.15;98782.09;5044736;28;20044;-80
2022/06/03 00:46:18;;;;;;;1.17;0.30;;;;;;;28.57;20.38;98776.38;5042462;28;20521;-80
2022/06/03 00:49:18;;;;;;;0.70;0.40;;;;;;;28.52;20.28;98779.75;5041216;28;20055;-79
2022/06/03 00:52:04;;;;;;;1.40;0.40;;;;;;;28.31;21.12;98773.94;5046709;28;20029;-80
2022/06/03 00:54:33;;;;;;;0.50;0.40;;;;;;;28.05;21.06;98779.47;5043689;28;20559;-80
2022/06/03 00:57:20;;;;;;;0.40;0.40;;;;;;;28.08;20.78;98779.84;5046263;28;20044;-80
2022/06/03 01:00:06;;;;;;;0.52;0.52;;;;;;;28.22;20.63;98776.59;5045009;28;20044;-80
2022/06/03 01:02:49;;;;;;;0.30;0.30;;;;;;;28.46;20.10;98775.09;5043294;28;20064;-80
2022/06/03 01:06:01;;;;;;;1.40;0.40;;;;;;;28.62;19.91;98773.03;5042827;28;20032;-80
2022/06/03 01:08:56;;;;;;;0.50;0.50;;;;;;;28.80;19.50;98777.38;5014712;28;20165;-80
2022/06/03 01:12:05;;;;;;;0.50;0.40;;;;;;;28.08;20.48;98782.66;5039612;28;20543;-80
2022/06/03 01:14:45;;;;;;;1.08;0.50;;;;;;;28.28;20.42;98778.44;5050102;28;20539;-80
2022/06/03 01:17:46;;;;;;;1.05;0.95;;;;;;;27.79;20.57;98780.56;5045067;28;20025;-80
2022/06/03 01:20:18;;;;;;;1.45;0.65;;;;;;;27.96;20.70;98782.09;5039459;28;20072;-80
2022/06/03 01:23:06;;;;;;;0.35;0.35;;;;;;;28.08;20.53;98789.06;5047368;28;20037;-80
2022/06/03 01:26:05;;;;;;;0.43;0.40;;;;;;;27.82;20.67;98784.53;5045985;28;20047;-80
2022/06/03 01:29:09;;;;;;;0.90;0.68;;;;;;;27.91;20.79;98781.88;5048693;28;20038;-80
2022/06/03 01:32:13;;;;;;;0.60;0.60;;;;;;;27.97;20.59;98788.53;5041744;28;20036;-80
2022/06/03 01:34:51;;;;;;;0.88;0.50;;;;;;;28.05;20.79;98793.56;5044642;28;20043;-80
2022/06/03 01:37:45;;;;;;;0.47;0.40;;;;;;;28.09;20.19;98790.66;5046880;28;20032;-80
2022/06/03 01:40:31;;;;;;;0.60;0.60;;;;;;;28.26;20.27;98792.22;5043150;28;20124;-80
2022/06/03 01:43:18;;;;;;;0.52;0.50;;;;;;;28.15;20.18;98786.06;5047508;28;20065;-80
2022/06/03 01:45:55;;;;;;;2.83;0.45;;;;;;;27.70;20.53;98794.47;5043636;28;20057;-80
2022/06/03 01:48:27;;;;;;;0.50;0.50;;;;;;;27.44;21.16;98784.28;5044155;28;20101;-80
2022/06/03 01:51:02;;;;;;;1.17;0.50;;;;;;;26.76;22.54;98791.84;5047426;28;20495;-80
2022/06/03 01:54:05;;;;;;;1.05;0.50;;;;;;;26.74;22.07;98792.28;5042721;28;22091;-80
2022/06/03 01:56:45;;;;;;;0.68;0.47;;;;;;;27.27;21.79;98791.09;5044866;28;20083;-80
2022/06/03 01:59:43;;;;;;;3.20;0.65;;;;;;;27.46;21.38;98792.28;5030189;28;20132;-80
2022/06/03 02:02:37;;;;;;;0.52;0.47;;;;;;;27.86;20.19;98794.47;5043535;28;20040;-80
2022/06/03 02:05:27;;;;;;;1.33;0.60;;;;;;;28.10;19.99;98791.47;5038925;28;20401;-80
2022/06/03 02:08:36;;;;;;;1.37;0.60;;;;;;;28.22;20.18;98796.38;5046620;28;20025;-80
2022/06/03 02:11:32;;;;;;;1.08;0.50;;;;;;;28.16;19.99;98800.97;5042207;28;20043;-80
2022/06/03 02:14:43;;;;;;;0.43;0.35;;;;;;;28.11;20.41;98801.50;5040775;28;20040;-80
2022/06/03 02:17:30;;;;;;;0.50;0.40;;;;;;;28.05;20.19;98819.00;5045510;28;20098;-80
2022/06/03 02:20:00;;;;;;;0.73;0.45;;;;;;;28.00;20.38;98804.63;5030109;28;20044;-80
2022/06/03 02:22:44;;;;;;;2.20;0.60;;;;;;;28.14;20.70;98811.94;5042511;28;20033;-78
2022/06/03 02:26:11;;;;;;;1.65;0.65;;;;;;;27.99;20.43;98806.66;5028782;28;20037;-80
2022/06/03 02:32:39;;;;;;;0.68;0.40;;;;;;;28.18;19.90;98816.25;5045981;28;20048;-79
2022/06/03 02:35:30;;;;;;;1.60;0.85;;;;;;;28.12;20.33;98822.88;5022667;28;20068;-80
2022/06/03 02:38:10;;;;;;;0.70;0.60;;;;;;;28.21;20.04;98820.22;5048711;28;20035;-79
2022/06/03 02:41:07;;;;;;;0.87;0.53;;;;;;;28.22;20.26;98822.56;5042680;28;20049;-80
2022/06/03 02:43:52;;;;;;;2.05;0.63;;;;;;;28.14;19.88;98818.38;5042128;28;20040;-80
2022/06/03 02:47:29;;;;;;;2.05;0.50;;;;;;;27.88;20.60;98814.59;5043146;28;20028;-80
2022/06/03 02:50:13;;;;;;;0.77;0.77;;;;;;;27.86;20.69;98825.53;4950500;28;20120;-80
2022/06/03 02:52:41;;;;;;;0.93;0.77;;;;;;;27.77;20.93;98811.22;5048339;28;20033;-80
2022/06/03 02:55:45;;;;;;;1.70;0.90;;;;;;;27.82;20.62;98830.44;5047893;28;20037;-80
2022/06/03 02:58:20;;;;;;;2.97;0.63;;;;;;;28.19;20.64;98825.50;5043372;28;20029;-80
2022/06/03 03:01:00;;;;;;;0.70;0.70;;;;;;;27.78;20.64;98829.75;5050060;28;20396;-79
2022/06/03 03:04:04;;;;;;;1.65;0.75;;;;;;;27.75;20.78;98827.03;5048110;28;20033;-79
2022/06/03 03:06:57;;;;;;;1.05;0.80;;;;;;;27.89;20.69;98830.28;5045984;28;20041;-79
2022/06/03 03:09:36;;;;;;;0.77;0.70;;;;;;;27.91;20.87;98824.19;5031051;28;20061;-79
2022/06/03 03:12:32;;;;;;;0.65;0.60;;;;;;;28.00;20.87;98839.31;5048508;28;20485;-79
2022/06/03 03:15:35;;;;;;;0.65;0.60;;;;;;;28.04;20.99;98836.38;5048174;28;20087;-78
2022/06/03 03:18:21;;;;;;;1.08;0.90;;;;;;;28.21;20.90;98834.31;5046794;28;20029;-79
2022/06/03 03:21:11;;;;;;;0.75;0.60;;;;;;;28.12;20.82;98829.31;5049683;28;20048;-79
2022/06/03 03:23:58;;;;;;;1.15;0.77;;;;;;;27.95;21.20;98831.34;5047868;28;20056;-78
2022/06/03 03:26:50;;;;;;;1.70;0.85;;;;;;;28.08;20.82;98837.88;5043415;28;20037;-78
2022/06/03 03:29:44;;;;;;;1.23;0.65;;;;;;;28.24;21.16;98833.44;5049284;28;20044;-79
2022/06/03 03:32:43;;;;;;;0.93;0.63;;;;;;;28.45;21.35;98832.88;5048908;28;20029;-79
2022/06/03 03:35:26;;;;;;;0.90;0.85;;;;;;;29.37;21.16;98830.97;5050630;28;20105;-78
2022/06/03 03:38:11;;;;;;;0.98;0.85;;;;;;;29.78;21.30;98836.50;5049818;28;20116;-79
2022/06/03 03:41:07;;;;;;;2.60;1.02;;;;;;;30.40;20.10;98834.00;5026777;28;20123;-79
2022/06/03 03:44:09;;;;;;;0.60;0.60;;;;;;;30.46;20.77;98835.78;5045448;28;20044;-79
2022/06/03 03:47:03;;;;;;;2.03;0.88;;;;;;;30.49;20.90;98834.06;5045224;28;20077;-79
2022/06/03 03:50:01;;;;;;;1.25;1.00;;;;;;;30.63;20.77;98837.19;5047056;28;20216;-79
2022/06/03 03:53:17;;;;;;;2.78;0.70;;;;;;;30.76;21.03;98832.22;5042053;28;20052;-78
2022/06/03 03:56:31;;;;;;;1.60;0.95;;;;;;;30.93;21.02;98832.84;5044108;28;20037;-78
2022/06/03 03:59:41;;;;;;;0.65;0.60;;;;;;;31.12;21.40;98833.75;5036304;28;20839;-78
2022/06/03 04:02:31;;;;;;;1.17;0.73;;;;;;;31.79;20.79;98837.53;5001696;28;20496;-79
2022/06/03 04:05:09;;;;;;;1.15;0.90;;;;;;;31.94;20.79;98837.75;5049185;28;20569;-79
2022/06/03 04:07:38;;;;;;;1.50;1.00;;;;;;;31.79;20.51;98834.69;5046416;28;20040;-78
2022/06/03 04:10:30;;;;;;;0.70;0.65;;;;;;;31.90;20.98;98842.78;5044447;28;20037;-78
2022/06/03 04:13:02;;;;;;;1.13;0.80;;;;;;;31.89;20.89;98844.81;5035492;28;20076;-78
2022/06/03 04:15:46;;;;;;;0.73;0.60;;;;;;;31.97;21.08;98846.13;5034734;28;20033;-78
2022/06/03 04:18:47;;;;;;;0.70;0.50;;;;;;;32.09;21.01;98844.44;5040933;28;20025;-78
2022/06/03 04:21:49;;;;;;;1.15;0.80;;;;;;;32.20;20.67;98846.81;5049751;28;20040;-78
2022/06/03 04:24:24;;;;;;;1.70;0.85;;;;;;;32.43;20.88;98849.84;5048354;28;20041;-78
2022/06/03 04:27:17;;;;;;;1.02;0.85;;;;;;;32.37;20.64;98837.50;5053121;28;20117;-78
2022/06/03 04:30:21;;;;;;;1.65;0.80;;;;;;;32.59;20.31;98845.91;5044773;28;20064;-78
2022/06/03 04:33:08;;;;;;;0.80;0.80;;;;;;;32.56;20.58;98850.50;5042462;28;20116;-79
2022/06/03 04:35:40;;;;;;;1.15;1.00;;;;;;;32.39;21.22;98845.56;5046665;28;20102;-79
2022/06/03 04:38:49;;;;;;;0.60;0.60;;;;;;;32.69;20.90;98856.03;5047543;28;20033;-78
2022/06/03 04:41:41;;;;;;;0.70;0.60;;;;;;;32.42;20.85;98859.63;5045715;28;20029;-80
2022/06/03 04:44:45;;;;;;;1.33;0.80;;;;;;;32.55;21.00;98854.63;5048840;28;20147;-79
2022/06/03 04:47:49;;;;;;;2.90;0.80;;;;;;;32.58;21.41;98855.72;5045492;28;20388;-81
2022/06/03 04:51:00;;;;;;;0.60;0.60;;;;;;;32.04;21.24;98848.66;5047678;28;20500;-81
2022/06/03 04:53:42;;;;;;;;;;;;;;;32.08;21.04;98852.16;5039906;28;20080;-80
2022/06/03 04:56:33;;;;;;;0.63;0.63;;;;;;;32.30;21.35;98852.03;5044264;28;19921;-80
2022/06/03 04:59:35;;;;;;;1.25;0.60;;;;;;;32.70;20.71;98846.22;5047148;28;20033;-79
2022/06/03 05:02:44;;;;;;;1.13;0.70;;;;;;;32.79;20.74;98845.44;5049134;28;20037;-82
2022/06/03 05:05:35;;;;;;;0.73;0.68;;;;;;;32.67;21.12;98847.94;5040100;28;20398;-80
2022/06/03 05:08:38;;;;;;;1.10;0.50;;;;;;;33.06;20.75;98857.59;5030125;28;20130;-78
2022/06/03 05:11:49;;;;;;;0.60;0.60;;;;;;;32.97;20.25;98859.63;5045516;28;20084;-80
2022/06/03 05:14:46;;;;;;;0.93;0.60;;;;;;;32.79;21.15;98866.16;5045014;28;20570;-79
2022/06/03 05:18:00;;;;;;;0.93;0.50;;;;;;;33.39;19.98;98869.84;5020462;28;20409;-80
2022/06/03 05:20:53;;;;;;;1.00;0.65;;;;;;;33.72;20.25;98871.97;4992526;28;20553;-80
2022/06/03 05:23:28;;;;;;;0.90;0.50;;;;;;;33.26;19.39;98866.38;4988019;28;20038;-80
2022/06/03 05:26:13;;;;;;;0.40;0.40;;;;;;;33.42;20.31;98870.94;5027505;28;20492;-79
2022/06/03 05:29:05;;;;;;;0.60;0.45;;;;;;;33.47;20.18;98870.28;5048927;28;20049;-79
2022/06/03 05:31:54;;;;;;;0.47;0.47;;;;;;;33.93;19.34;98870.91;5047552;28;20025;-79
2022/06/03 05:34:34;;;;;;;0.70;0.50;;;;;;;34.57;19.48;98871.31;5050506;28;20360;-79
2022/06/03 05:37:19;;;;;;;1.30;0.52;;;;;;;33.72;19.72;98874.81;5051874;28;20040;-79
2022/06/03 05:40:05;;;;;;;0.50;0.40;;;;;;;34.33;19.26;98871.28;5051844;28;20045;-79
2022/06/03 05:42:41;;;;;;;0.55;0.43;;;;;;;34.03;20.02;98873.25;5044056;28;20397;-79
2022/06/03 05:45:10;;;;;;;0.50;0.50;;;;;;;33.06;20.71;98868.97;5051254;28;20424;-79
2022/06/03 05:47:56;;;;;;;1.17;0.50;;;;;;;33.20;21.04;98868.31;5051109;28;20040;-79
2022/06/03 05:51:04;;;;;;;0.90;0.57;;;;;;;34.04;19.25;98866.28;5050134;28;20041;-79
2022/06/03 05:53:44;;;;;;;0.40;0.40;;;;;;;33.94;19.81;98861.88;5045109;28;20493;-79
2022/06/03 05:56:35;;;;;;;0.82;0.57;;;;;;;32.98;20.49;98867.69;5051648;28;20053;-78
2022/06/03 05:59:19;;;;;;;2.65;0.40;;;;;;;33.60;20.81;98868.06;5051786;28;20039;-78
2022/06/03 06:02:03;;;;;;;0.40;0.40;;;;;;;34.37;20.07;98866.22;5050583;28;20102;-78
2022/06/03 06:05:07;;;;;;;0.50;0.50;;;;;;;34.20;19.33;98862.22;5049308;28;20079;-79
2022/06/03 06:07:48;;;;;;;0.40;0.40;;;;;;;34.39;20.34;98869.38;5048143;28;20112;-79
2022/06/03 06:10:26;;;;;;;0.60;0.60;;;;;;;34.16;19.92;98857.97;5048460;28;20075;-79
2022/06/03 06:13:13;;;;;;;0.82;0.57;;;;;;;34.10;19.42;98857.84;5048314;28;20033;-79
2022/06/03 06:15:51;;;;;;;1.13;0.50;;;;;;;33.37;20.45;98852.44;5040248;28;20045;-78
2022/06/03 06:18:40;;;;;;;0.88;0.50;;;;;;;34.19;19.56;98860.66;5051325;28;20496;-79
2022/06/03 06:21:29;;;;;;;0.60;0.60;;;;;;;34.26;19.59;98851.69;5046637;28;20032;-79
2022/06/03 06:24:21;;;;;;;0.90;0.47;;;;;;;34.36;19.54;98856.06;5046693;28;20037;-79
2022/06/03 06:27:09;;;;;;;0.60;0.60;;;;;;;34.17;20.18;98851.00;5052548;28;20037;-79
2022/06/03 06:30:07;;;;;;;0.68;0.55;;;;;;;34.76;20.00;98847.06;5054101;28;20037;-79
2022/06/03 06:32:47;;;;;;;1.00;0.60;;;;;;;34.88;18.93;98848.06;5048452;28;20078;-79
2022/06/03 06:35:28;;;;;;;;;;;;;;;34.07;20.30;98848.19;5054399;28;20037;-79
2022/06/03 06:38:00;;;;;;;;;;;;;;;33.60;20.26;98850.16;5055009;28;20410;-78
2022/06/03 06:40:45;;;;;;;0.93;0.60;;;;;;;32.91;20.56;98861.53;5036640;28;22348;-79
2022/06/03 06:43:29;;;;;;;0.70;0.60;;;;;;;33.36;20.98;98856.56;5055139;28;20140;-79
2022/06/03 06:46:15;;;;;;;2.15;0.70;;;;;;;32.03;22.76;98852.78;5051216;28;20036;-79
2022/06/03 06:49:00;;;;;;;0.70;0.70;;;;;;;32.21;21.72;98854.09;5050094;28;20036;-78
2022/06/03 06:51:49;;;;;;;1.25;0.50;;;;;;;33.36;20.32;98848.03;5054266;28;20554;-78
2022/06/03 06:54:36;;;;;;;0.55;0.50;;;;;;;33.80;19.88;98850.38;5054631;28;20029;-79
2022/06/03 06:57:14;;;;;;;0.63;0.63;;;;;;;33.61;20.55;98849.69;5054255;28;20069;-78
2022/06/03 06:59:57;;;;;;;0.70;0.70;;;;;;;33.67;19.66;98847.78;5051373;28;20075;-79
2022/06/03 07:02:31;;;;;;;1.02;0.88;;;;;;;32.46;21.10;98851.75;5050983;28;20061;-78
2022/06/03 07:05:11;;;;;;;0.50;0.50;;;;;;;32.68;22.34;98843.06;5055292;28;20041;-78
2022/06/03 07:08:07;;;;;;;1.52;0.70;;;;;;;32.70;22.21;98843.38;5050664;28;20055;-79
2022/06/03 07:10:54;;;;;;;0.75;0.75;;;;;;;32.52;22.35;98847.03;5050888;28;20041;-78
2022/06/03 07:13:46;;;;;;;0.80;0.70;;;;;;;31.04;23.29;98838.13;5055162;28;20033;-78
2022/06/03 07:19:48;;;;;;;0.73;0.73;;;;;;;32.89;21.29;98829.91;5049910;28;20420;-78
2022/06/03 07:22:31;;;;;;;1.70;0.93;;;;;;;31.18;22.65;98831.91;5048923;28;20466;-79
2022/06/03 07:25:15;;;;;;;0.82;0.70;;;;;;;31.18;23.73;98834.75;5049764;28;20108;-78
2022/06/03 07:28:07;;;;;;;0.85;0.80;;;;;;;31.18;23.25;98838.34;5050410;28;20033;-79
2022/06/03 07:31:04;;;;;;;0.70;0.70;;;;;;;31.48;23.39;98833.19;5045538;28;20080;-79
2022/06/03 07:33:30;;;;;;;1.05;0.95;;;;;;;33.46;21.90;98833.75;5054971;28;20376;-79
2022/06/03 07:36:09;;;;;;;1.48;0.80;;;;;;;33.25;20.36;98830.66;5053810;28;20037;-79
2022/06/03 07:38:45;;;;;;;1.27;0.55;;;;;;;34.09;20.22;98839.16;5052031;28;20024;-79
2022/06/03 07:41:16;;;;;;;0.70;0.70;;;;;;;33.17;20.58;98837.16;5053297;28;20144;-79
2022/06/03 07:43:49;;;;;;;1.60;0.80;;;;;;;32.96;21.16;98840.97;5047727;28;20067;-79
2022/06/03 07:46:33;;;;;;;1.08;0.77;;;;;;;33.81;20.66;98832.03;5053991;28;20067;-79
2022/06/03 07:49:04;;;;;;;0.70;0.70;;;;;;;32.19;22.33;98839.53;5047910;28;20045;-79
2022/06/03 07:51:38;;;;;;;1.33;0.80;;;;;;;32.36;21.96;98835.94;5052321;28;20043;-79
2022/06/03 07:54:29;;;;;;;0.95;0.95;;;;;;;31.77;21.50;98833.56;5053877;28;20108;-79
2022/06/03 07:57:04;;;;;;;1.17;0.95;;;;;;;31.18;22.68;98826.22;5053123;28;20503;-79
2022/06/03 07:59:34;;;;;;;1.05;0.95;;;;;;;30.58;23.74;98829.28;5051750;28;20435;-79
2022/06/03 08:02:13;;;;;;;2.15;0.90;;;;;;;32.42;22.62;98821.88;5053531;28;20531;-79
2022/06/03 08:04:40;;;;;;;1.83;0.90;;;;;;;32.16;22.53;98817.75;5047414;28;20052;-79
2022/06/03 08:13:04;;;;;;;1.10;1.00;;;;;;;33.29;21.53;98817.03;5050785;28;20052;-79
2022/06/03 08:15:37;;;;;;;1.38;0.88;;;;;;;32.40;21.04;98810.19;5035771;28;20115;-79
2022/06/03 08:18:05;;;;;;;1.33;1.13;;;;;;;32.65;21.65;98809.91;5053460;28;20113;-79
2022/06/03 08:20:37;;;;;;;1.25;0.80;;;;;;;33.20;20.43;98808.53;5047693;28;20044;-79
2022/06/03 08:23:05;;;;;;;1.55;0.85;;;;;;;33.02;21.92;98804.97;5048033;28;20025;-79
2022/06/03 08:25:38;;;;;;;1.00;0.88;;;;;;;33.74;20.24;98803.88;5053385;28;20056;-79
2022/06/03 08:28:06;;;;;;;1.40;1.27;;;;;;;32.77;21.09;98803.22;5052775;28;20374;-79
2022/06/03 08:30:32;;;;;;;1.08;0.93;;;;;;;32.92;20.97;98812.69;5049731;28;20037;-79
2022/06/03 08:33:06;;;;;;;0.80;0.80;;;;;;;32.83;22.35;98800.53;5053298;28;20116;-79
2022/06/03 08:35:38;;;;;;;1.50;1.10;;;;;;;31.50;22.11;98805.09;5034305;28;20044;-79
2022/06/03 08:38:07;;;;;;;3.05;1.00;;;;;;;32.44;22.17;98810.84;5052159;28;20038;-79
2022/06/03 08:40:44;;;;;;;0.70;0.70;;;;;;;33.93;20.40;98805.38;5052406;28;20033;-79
2022/06/03 08:43:38;;;;;;;0.63;0.63;;;;;;;32.21;21.78;98803.69;5052483;28;20033;-79
2022/06/03 08:46:24;;;;;;;3.70;0.82;;;;;;;30.24;22.40;98806.63;5052023;28;20035;-79
2022/06/03 08:48:53;;;;;;;0.75;0.75;;;;;;;30.67;21.85;98809.50;5050673;28;20086;-79
2022/06/03 08:51:32;;;;;;;1.52;0.80;;;;;;;31.79;20.01;98800.59;5052783;28;20037;-79
2022/06/03 08:54:00;;;;;;;0.90;0.80;;;;;;;31.52;22.00;98792.03;5048046;28;20412;-79
2022/06/03 08:56:35;;;;;;;0.75;0.65;;;;;;;33.31;20.49;98800.25;5052725;28;20040;-80
2022/06/03 08:59:12;;;;;;;1.05;0.93;;;;;;;33.05;18.98;98790.53;5051747;28;20033;-80
2022/06/03 09:01:58;;;;;;;0.90;0.60;;;;;;;31.17;19.86;98799.09;5051847;28;20072;-79
2022/06/03 09:04:50;;;;;;;0.75;0.70;;;;;;;31.02;20.52;98793.19;5047880;28;20080;-79
2022/06/03 09:07:23;;;;;;;2.55;0.70;;;;;;;33.25;19.42;98793.66;5051757;28;20025;-80
2022/06/03 09:10:15;;;;;;;0.70;0.70;;;;;;;31.97;18.59;98789.31;5052328;28;20033;-79
2022/06/03 09:12:58;;;;;;;0.65;0.60;;;;;;;31.32;19.92;98785.94;5026359;28;20041;-79
2022/06/03 09:15:28;;;;;;;1.42;0.70;;;;;;;31.62;20.66;98782.28;5051523;28;20037;-80
2022/06/03 09:17:58;;;;;;;0.67;0.47;;;;;;;32.53;19.45;98773.88;5051488;28;20075;-79
2022/06/03 09:20:39;;;;;;;0.50;0.50;;;;;;;31.46;20.14;98773.25;5051607;28;20291;-79
2022/06/03 09:23:08;;;;;;;0.70;0.60;;;;;;;31.25;20.27;98784.16;5050990;28;20071;-79
2022/06/03 09:25:41;;;;;;;0.50;0.50;;;;;;;31.66;20.13;98785.75;5051642;28;20033;-80
2022/06/03 09:28:12;;;;;;;0.57;0.52;;;;;;;33.15;19.72;98788.47;5051932;28;20536;-79
2022/06/03 09:30:40;;;;;;;1.30;0.60;;;;;;;33.98;18.18;98787.59;5049535;28;20049;-80
2022/06/03 09:33:11;;;;;;;0.63;0.52;;;;;;;33.36;16.84;98782.53;5053382;28;20025;-79
2022/06/03 09:35:40;;;;;;;0.60;0.60;;;;;;;32.39;18.76;98775.31;5050428;28;20063;-79
2022/06/03 09:38:09;;;;;;;1.15;0.60;;;;;;;32.70;19.42;98773.06;5052227;28;20040;-79
2022/06/03 09:40:40;;;;;;;0.95;0.60;;;;;;;32.97;19.68;98777.13;5051721;28;20032;-79
2022/06/03 09:43:15;;;;;;;1.23;0.50;;;;;;;33.06;18.96;98777.91;5050731;28;20037;-79
2022/06/03 09:45:46;;;;;;;0.50;0.50;;;;;;;33.23;19.42;98781.97;5049888;28;20036;-80
2022/06/03 09:48:15;;;;;;;0.93;0.50;;;;;;;34.88;16.02;98773.84;5050345;28;20498;-80
2022/06/03 09:50:46;;;;;;;0.90;0.50;;;;;;;34.00;17.61;98763.00;5051636;28;20045;-79
2022/06/03 09:53:16;;;;;;;0.40;0.40;;;;;;;33.49;18.14;98773.00;5050999;28;20035;-80
2022/06/03 09:55:49;;;;;;;0.65;0.65;;;;;;;34.22;17.55;98779.03;5046435;28;20370;-80
2022/06/03 09:58:21;;;;;;;0.60;0.60;;;;;;;35.03;17.98;98774.69;5051655;28;20472;-80
2022/06/03 10:00:51;;;;;;;0.50;0.40;;;;;;;32.91;18.39;98759.88;5034693;28;20123;-79
2022/06/03 10:03:18;;;;;;;1.85;0.52;;;;;;;34.30;18.10;98771.69;5051904;28;20053;-80
2022/06/03 10:05:49;;;;;;;0.40;0.40;;;;;;;35.19;17.13;98757.03;5051166;28;20033;-80
2022/06/03 10:08:18;;;;;;;0.60;0.60;;;;;;;33.98;17.65;98756.25;5051706;28;20530;-80
2022/06/03 10:13:32;;;;;;;0.60;0.60;;;;;;;33.28;18.45;98763.44;5051652;28;20071;-80
2022/06/03 10:16:00;;;;;;;1.00;0.50;;;;;;;33.52;17.43;98764.25;5051645;28;20126;-80
2022/06/03 10:18:56;;;;;;;0.70;0.70;;;;;;;32.59;18.72;98758.56;5051234;28;20033;-80
2022/06/03 10:21:22;;;;;;;0.70;0.60;;;;;;;33.32;18.94;98764.84;5031880;28;20477;-80
2022/06/03 10:23:57;;;;;;;2.75;0.90;;;;;;;34.63;17.71;98756.06;5049766;28;20044;-82
2022/06/03 10:26:37;;;;;;;1.55;0.70;;;;;;;34.47;18.88;98765.03;5051425;28;20049;-80
2022/06/03 10:29:15;;;;;;;0.85;0.50;;;;;;;33.94;17.66;98755.63;5050277;28;20051;-79
2022/06/03 10:31:46;;;;;;;0.60;0.50;;;;;;;34.72;17.42;98753.09;5051466;28;20052;-80
2022/06/03 10:34:15;;;;;;;0.70;0.70;;;;;;;33.85;17.64;98744.28;5048133;28;20481;-80
2022/06/03 10:36:44;;;;;;;0.60;0.60;;;;;;;35.23;16.61;98744.13;5051386;28;20021;-80
2022/06/03 10:39:15;;;;;;;1.05;0.68;;;;;;;34.62;18.20;98750.81;5048252;28;20021;-80
2022/06/03 10:42:01;;;;;;;1.23;0.60;;;;;;;33.85;18.59;98752.84;5033983;28;20116;-80
2022/06/03 10:44:33;;;;;;;0.70;0.60;;;;;;;33.48;18.47;98745.78;5051127;28;20032;-80
2022/06/03 10:47:06;;;;;;;1.27;0.60;;;;;;;33.90;17.64;98743.63;5047935;28;20384;-80
2022/06/03 10:49:51;;;;;;;0.70;0.70;;;;;;;34.30;16.52;98735.44;5051038;28;20130;-80
2022/06/03 11:01:21;;;;;;;0.73;0.50;;;;;;;36.49;16.41;98717.00;5052559;28;20048;-80
2022/06/03 11:03:50;;;;;;;0.60;0.60;;;;;;;37.20;16.85;98714.00;5034710;28;20037;-81
2022/06/03 11:06:22;;;;;;;0.85;0.47;;;;;;;37.02;16.35;98717.25;5047339;28;20029;-80
2022/06/03 11:08:59;;;;;;;0.55;0.50;;;;;;;36.94;17.21;98721.09;5044192;28;20420;-80
2022/06/03 11:11:42;;;;;;;0.65;0.50;;;;;;;37.29;15.30;98724.50;5048728;28;20029;-81
2022/06/03 11:14:26;;;;;;;0.60;0.60;;;;;;;37.57;15.32;98721.84;5036006;28;20048;-80
2022/06/03 11:17:04;;;;;;;0.70;0.70;;;;;;;36.33;15.15;98721.25;5040338;28;20539;-80
2022/06/03 11:19:34;;;;;;;0.45;0.45;;;;;;;36.01;16.86;98716.72;5055596;28;20025;-80
2022/06/03 11:22:23;;;;;;;0.50;0.50;;;;;;;34.15;17.67;98717.50;5035824;28;20482;-80
2022/06/03 11:25:11;;;;;;;0.50;0.40;;;;;;;36.32;16.89;98713.13;5036255;28;20033;-80
2022/06/03 11:28:01;;;;;;;0.50;0.50;;;;;;;37.42;16.14;98706.88;5050770;28;20025;-81
2022/06/03 11:30:47;;;;;;;0.90;0.90;;;;;;;35.30;17.56;98708.66;5035886;28;20037;-80
2022/06/03 11:33:24;;;;;;;0.90;0.60;;;;;;;34.93;18.43;98707.53;5049006;28;20044;-80
2022/06/03 11:36:02;;;;;;;0.60;0.60;;;;;;;34.34;16.89;98698.16;5026921;28;20452;-80
2022/06/03 11:38:52;;;;;;;0.60;0.60;;;;;;;34.21;20.29;98695.59;5018271;28;20041;-80
2022/06/03 11:41:29;;;;;;;1.08;0.70;;;;;;;33.85;18.79;98690.97;5048873;28;20029;-80
2022/06/03 11:44:08;;;;;;;0.85;0.60;;;;;;;34.19;18.16;98692.44;5037135;28;20500;-80
2022/06/03 11:46:36;;;;;;;0.60;0.60;;;;;;;33.92;18.75;98695.50;5035555;28;20059;-81
2022/06/03 11:49:05;;;;;;;0.75;0.60;;;;;;;34.67;18.55;98681.66;5035134;28;20038;-81
2022/06/03 11:51:31;;;;;;;0.50;0.50;;;;;;;34.98;16.72;98684.00;5045004;28;20040;-80
2022/06/03 11:53:59;;;;;;;0.80;0.50;;;;;;;34.90;17.94;98682.81;5055371;28;20116;-80
2022/06/03 11:56:29;;;;;;;0.77;0.70;;;;;;;34.33;17.58;98688.81;5055463;28;20033;-80
2022/06/03 11:59:02;;;;;;;;;;;;;;;34.34;16.77;98678.97;5055775;28;20117;-80
2022/06/03 12:01:40;;;;;;;0.63;0.60;;;;;;;35.57;16.72;98659.72;5054904;28;19928;-81
2022/06/03 12:04:12;;;;;;;0.63;0.55;;;;;;;35.25;17.04;98670.16;5054666;28;20496;-81
2022/06/03 12:06:44;;;;;;;1.13;0.52;;;;;;;35.13;17.40;98667.63;5034969;28;20041;-81
2022/06/03 12:09:31;;;;;;;0.82;0.47;;;;;;;34.73;18.15;98662.56;5042326;28;20029;-81
2022/06/03 12:15:31;;;;;;;0.93;0.52;;;;;;;36.42;15.71;98643.84;5045648;28;20072;-81
2022/06/03 12:18:14;;;;;;;0.63;0.50;;;;;;;36.63;16.84;98639.63;5053798;28;20111;-81
2022/06/03 12:20:49;;;;;;;1.17;0.40;;;;;;;36.99;17.39;98638.13;5054393;28;20029;-81
2022/06/03 12:23:15;;;;;;;0.60;0.50;;;;;;;35.33;18.05;98642.00;5040180;28;20068;-80
2022/06/03 12:25:44;;;;;;;0.63;0.60;;;;;;;34.98;18.51;98638.34;5037865;28;20407;-80
2022/06/03 12:28:29;;;;;;;0.60;0.50;;;;;;;33.93;17.70;98642.94;5051590;28;20030;-80
2022/06/03 12:31:03;;;;;;;0.60;0.60;;;;;;;34.57;18.23;98635.34;5050171;28;20099;-81
2022/06/03 12:33:51;;;;;;;0.60;0.60;;;;;;;35.28;16.23;98628.41;5048070;28;20029;-81
2022/06/03 12:36:37;;;;;;;0.40;0.40;;;;;;;35.46;17.82;98621.63;5042507;28;20041;-81
2022/06/03 12:39:08;;;;;;;2.28;1.40;;;;;;;34.42;18.02;98616.66;5047526;28;20559;-81
2022/06/03 12:41:49;;;;;;;0.52;0.40;;;;;;;34.23;17.89;98613.22;5045404;28;20072;-81
2022/06/03 12:44:35;;;;;;;;;;;;;;;33.76;19.25;98605.56;5049022;28;20095;-81
2022/06/03 12:47:31;;;;;;;0.70;0.70;;;;;;;33.83;18.56;98602.34;5046682;28;19947;-82
2022/06/03 12:50:24;;;;;;;0.57;0.50;;;;;;;34.27;18.29;98605.25;5048852;28;20072;-82
2022/06/03 12:52:58;;;;;;;1.10;0.50;;;;;;;34.93;19.31;98605.56;5044391;28;20540;-81
2022/06/03 12:55:36;;;;;;;0.40;0.40;;;;;;;34.72;17.53;98599.03;5047598;28;20044;-81
2022/06/03 12:58:30;;;;;;;1.25;0.85;;;;;;;34.22;17.71;98582.31;5047725;28;20071;-80
2022/06/03 13:00:58;;;;;;;0.40;0.40;;;;;;;36.17;17.19;98583.78;5047662;28;20035;-81
2022/06/03 13:03:25;;;;;;;2.53;0.50;;;;;;;35.04;17.73;98573.56;5044025;28;20052;-82
2022/06/03 13:05:54;;;;;;;0.63;0.43;;;;;;;34.82;17.04;98579.72;5047434;28;20025;-81
2022/06/03 13:08:29;;;;;;;0.55;0.50;;;;;;;34.94;16.90;98574.97;5045478;28;20096;-82
2022/06/03 13:11:04;;;;;;;0.40;0.40;;;;;;;36.20;16.81;98571.34;5050010;28;20374;-81
2022/06/03 13:13:32;;;;;;;0.60;0.60;;;;;;;35.72;16.75;98574.72;5046441;28;20055;-82
2022/06/03 13:16:19;;;;;;;0.75;0.43;;;;;;;36.14;16.67;98567.63;5048055;28;20048;-83
2022/06/03 13:18:49;;;;;;;0.38;0.38;;;;;;;36.28;18.55;98564.66;5035356;28;20508;-83